»·PEaware :: QXE548 KPDX-KSEA

QXE548 :: KPDX-KSEA

FLIGHT INFORMATION

Flight Status: Arrived
Operator:
Horizon Air
More flights by this operator :: More flights under this callsign
Pilot: Austin B. (27954)
Aircraft: DEHAVILLAND DASH 8 400
(DH8D)
More flights by this aircraft type
Origin: KPDX Portland Intl
United States
Destination: KSEA Seattle-Tacoma Intl
United States
More flights between these airports :: More routes between these airports
Route: +PTLD1 BTG COUGA KRIEG HAWKZ7
File this flight plan on PilotEdge
Remarks:
Altitude:
(Current/Filed)
14,000ft
Speed:
(Current/Filed)
375kts
Departed: 01-May-20 08:22 PM
Arrived: 01-May-20 08:57 PM
Distance/Time
Traveled:
112nm/0:35
Distance/Time
To Go:
Arrived

Flight Plot

Page will automatically refresh every two minutes.

Flight plan parsing failed; only flown route is shown


Map Options




Map Legend


Flown Route
Filed Route
Departure Airport
Arrival Airport
Navaid (VOR, NDB)
Fix

Horizontal Profiles

Position Reports

Time Latitude Longitude Heading Altitude Ground
Speed
01-May-20 19:33 45.588866 -122.594531 210 37ft 0kts
01-May-20 19:34 45.588866 -122.594532 210 37ft 0kts
01-May-20 19:35 45.588866 -122.594532 210 37ft 0kts
01-May-20 19:36 45.588866 -122.594532 210 37ft 0kts
01-May-20 19:37 45.588866 -122.594532 210 37ft 0kts
01-May-20 19:38 45.588866 -122.594532 210 37ft 0kts
01-May-20 19:39 45.588866 -122.594532 210 37ft 0kts
01-May-20 19:40 45.588866 -122.594532 210 37ft 0kts
01-May-20 19:41 45.588866 -122.594532 210 37ft 0kts
01-May-20 19:42 45.588866 -122.594532 210 37ft 0kts
01-May-20 19:43 45.588866 -122.594532 210 37ft 0kts
01-May-20 19:44 45.588866 -122.594532 210 37ft 0kts
01-May-20 19:45 45.588866 -122.594532 210 37ft 0kts
01-May-20 19:46 45.588866 -122.594532 210 37ft 0kts
01-May-20 19:47 45.588866 -122.594532 210 37ft 0kts
01-May-20 19:48 45.588866 -122.594532 210 37ft 0kts
01-May-20 19:49 45.588866 -122.594532 210 37ft 0kts
01-May-20 19:50 45.588866 -122.594532 210 37ft 0kts
01-May-20 19:51 45.588866 -122.594532 210 37ft 0kts
01-May-20 19:52 45.588866 -122.594532 210 37ft 0kts
01-May-20 19:53 45.588866 -122.594532 210 37ft 0kts
01-May-20 19:54 45.588866 -122.594532 210 37ft 0kts
01-May-20 19:55 45.588866 -122.594532 210 37ft 0kts
01-May-20 19:56 45.588866 -122.594532 210 37ft 0kts
01-May-20 19:57 45.588866 -122.594532 210 37ft 0kts
01-May-20 19:58 45.588866 -122.594532 210 37ft 0kts
01-May-20 19:59 45.588866 -122.594532 210 37ft 0kts
01-May-20 20:00 45.588866 -122.594532 210 37ft 0kts
01-May-20 20:01 45.588866 -122.594532 210 37ft 0kts
01-May-20 20:02 45.588866 -122.594532 210 37ft 0kts
01-May-20 20:03 45.588866 -122.594532 210 37ft 0kts
01-May-20 20:04 45.588866 -122.594532 210 37ft 0kts
01-May-20 20:05 45.588866 -122.594532 210 37ft 0kts
01-May-20 20:06 45.588866 -122.594532 210 37ft 0kts
01-May-20 20:08 45.588866 -122.594532 210 37ft 0kts
01-May-20 20:09 45.588866 -122.594532 210 37ft 0kts
01-May-20 20:10 45.588866 -122.594532 210 37ft 0kts
01-May-20 20:11 45.589497 -122.594008 210 37ft 3kts
01-May-20 20:12 45.589790 -122.593754 211 37ft 0kts
01-May-20 20:13 45.589790 -122.593754 211 37ft 0kts
01-May-20 20:14 45.589790 -122.593754 211 37ft 0kts
01-May-20 20:15 45.589790 -122.593754 211 37ft 0kts
01-May-20 20:16 45.589790 -122.593754 211 37ft 0kts
01-May-20 20:17 45.590012 -122.595273 300 37ft 14kts
01-May-20 20:18 45.591650 -122.599267 309 37ft 5kts
01-May-20 20:19 45.592729 -122.597604 41 37ft 21kts
01-May-20 20:20 45.594076 -122.595948 36 37ft 0kts
01-May-20 20:21 45.594441 -122.595571 37 37ft 9kts
01-May-20 20:22 45.589884 -122.582919 116 43ft 130kts
01-May-20 20:23 45.568339 -122.527077 117 2233ft 177kts
01-May-20 20:24 45.543365 -122.461938 118 5026ft 193kts
01-May-20 20:25 45.559785 -122.399660 1 7684ft 221kts
01-May-20 20:26 45.622462 -122.426932 336 9855ft 250kts
01-May-20 20:27 45.689373 -122.461621 335 12044ft 256kts
01-May-20 20:27 45.745629 -122.490986 332 13665ft 258kts
01-May-20 20:28 45.817274 -122.528436 333 14021ft 295kts
01-May-20 20:30 45.910862 -122.579170 334 13942ft 322kts
01-May-20 20:30 45.980918 -122.617817 333 13957ft 331kts
01-May-20 20:31 46.068591 -122.665141 335 13939ft 340kts
01-May-20 20:32 46.162405 -122.692225 349 13941ft 350kts
01-May-20 20:33 46.259407 -122.709942 348 13940ft 350kts
01-May-20 20:34 46.356422 -122.724829 354 13938ft 350kts
01-May-20 20:35 46.454206 -122.727105 355 13933ft 349kts
01-May-20 20:36 46.552015 -122.730399 355 13930ft 349kts
01-May-20 20:37 46.650397 -122.734085 355 13927ft 349kts
01-May-20 20:38 46.746711 -122.737612 355 13926ft 349kts
01-May-20 20:39 46.833729 -122.683752 41 13650ft 350kts
01-May-20 20:40 46.904535 -122.598802 37 12763ft 325kts
01-May-20 20:41 46.982368 -122.540912 13 11768ft 317kts
01-May-20 20:42 47.065333 -122.506925 15 10803ft 315kts
01-May-20 20:43 47.150603 -122.486598 6 10031ft 313kts
01-May-20 20:44 47.234115 -122.473360 5 9614ft 306kts
01-May-20 20:45 47.317249 -122.461049 6 8619ft 292kts
01-May-20 20:46 47.391831 -122.453930 359 7640ft 275kts
01-May-20 20:47 47.468030 -122.455200 0 6655ft 276kts
01-May-20 20:48 47.539894 -122.461315 342 5389ft 250kts
01-May-20 20:49 47.604823 -122.456514 39 4138ft 232kts
01-May-20 20:50 47.626605 -122.374711 86 3198ft 202kts
01-May-20 20:51 47.607904 -122.321666 156 2984ft 144kts
01-May-20 20:52 47.566238 -122.310504 179 2185ft 166kts
01-May-20 20:53 47.525062 -122.310408 182 1443ft 140kts
01-May-20 20:54 47.490003 -122.310794 182 1072ft 124kts
01-May-20 20:55 47.459884 -122.311043 181 441ft 96kts
01-May-20 20:56 47.448156 -122.310634 151 440ft 11kts
01-May-20 20:57 47.445795 -122.307794 104 440ft 15kts
01-May-20 20:58 47.445772 -122.306557 88 440ft 0kts
01-May-20 20:59 47.447699 -122.306149 0 440ft 19kts
01-May-20 21:00 47.451687 -122.306246 349 440ft 0kts

Navigation Log

Ident Type
Flight plan parsing failed, navigation log unavailable